Flight Track Log - Related Links

Times and Time Zones

All times are in EDT time to prevent confusion due to time zone crossing. See the C-FSKO flight status page for this flight to view local times or setup timezone preferences in your user account.

Time Position Orientation Groundspeed Altitude Reporting Facility
EDT Latitude Longitude Course Direction KTS MPH feet Rate Location/Type
Thu 10:35:02 PM 47.8500 -110.8833 278° West 380 437 38,000  Level Winnipeg Center
Thu 10:36:01 PM 47.8667 -111.0667 278° West 370 426 38,000  Level Winnipeg Center
Thu 10:37:02 PM 47.8667 -111.2167 270° West 380 437 38,000  Level Winnipeg Center
Thu 10:38:01 PM 47.8500 -111.3667 261° West 380 437 38,000  Level Winnipeg Center
Thu 10:39:01 PM 47.8500 -111.5167 270° West 380 437 38,000  Level Winnipeg Center
Thu 10:39:44 PM 47.8333 -111.6000 253° West 390 449 38,000  Level Edmonton Center
Thu 10:40:44 PM 47.8333 -111.7500 270° West 370 426 38,000  Level Edmonton Center
Thu 10:41:44 PM 47.8333 -111.9000 270° West 370 426 38,000  Level Edmonton Center
Thu 10:42:44 PM 47.8167 -112.0667 262° West 380 437 38,000  Level Edmonton Center
Thu 10:43:44 PM 47.8167 -112.2167 270° West 370 426 38,000  Level Edmonton Center
Thu 10:44:44 PM 47.8167 -112.3667 270° West 370 426 38,000  Level Edmonton Center
Thu 10:45:44 PM 47.8000 -112.5167 261° West 380 437 38,000  Level Edmonton Center
Thu 10:46:44 PM 47.8167 -112.6667 279° West 370 426 38,000  Level Edmonton Center
Thu 10:47:44 PM 47.8000 -112.8500 262° West 380 437 38,000  Level Edmonton Center
Thu 10:48:44 PM 47.8000 -113.0000 270° West 390 449 38,000  Level Edmonton Center
Thu 10:49:44 PM 47.7833 -113.1500 261° West 380 437 38,000  Level Edmonton Center
Thu 10:50:44 PM 47.7833 -113.3000 270° West 360 414 38,000  Level Edmonton Center
Thu 10:51:44 PM 47.7833 -113.4500 270° West 370 426 38,000  Level Edmonton Center
Thu 10:52:44 PM 47.7667 -113.6000 261° West 360 414 38,000  Level Edmonton Center
Thu 10:53:43 PM 47.7667 -113.7500 270° West 360 414 38,000  Level Edmonton Center
Thu 10:54:44 PM 47.7667 -113.9000 270° West 370 426 38,000  Level Edmonton Center
Thu 10:55:44 PM 47.7500 -114.0500 261° West 350 403 38,000  Level Edmonton Center
Thu 10:56:44 PM 47.7333 -114.1833 260° West 350 403 38,000  Level Edmonton Center
Thu 10:57:43 PM 47.7333 -114.3500 270° West 360 414 38,000  Level Edmonton Center
Thu 10:58:43 PM 47.7333 -114.4833 270° West 360 414 38,000  Level Edmonton Center
Thu 10:59:43 PM 47.7167 -114.6333 261° West 370 426 38,000  Level Edmonton Center
Thu 11:00:43 PM 47.7167 -114.7833 270° West 360 414 38,000  Level Edmonton Center
Thu 11:01:43 PM 47.7000 -114.9333 261° West 360 414 38,000  Level Edmonton Center
Thu 11:02:43 PM 47.7000 -115.0833 270° West 360 414 38,000  Level Edmonton Center
Thu 11:03:43 PM 47.6833 -115.2333 261° West 360 414 38,000  Level Edmonton Center
Thu 11:04:43 PM 47.7000 -115.3833 279° West 370 426 38,000  Level Edmonton Center
Thu 11:05:43 PM 47.6667 -115.5000 247° West 350 403 38,000  Level Edmonton Center
Thu 11:07:26 PM 47.6500 -115.7833 73° East 360 414 38,000  Level Edmonton Center
Thu 11:08:26 PM 47.6500 -115.9000 270° West 350 403 38,000 -1,188 Level Edmonton Center
Thu 11:15:51 PM 58.5000 -94.0000 73° East 330 380 28,000 -1,188 Descending Edmonton Center
Thu 11:16:51 PM 58.4167 -94.0667 180° South 290 334 28,000  Level Edmonton Center
Thu 11:17:00 PM 47.8083 -115.1341 73° East  Level Estimated
Thu 11:17:51 PM 58.3333 -94.0833 186° South 290 334 28,000  Level Edmonton Center
Thu 11:18:00 PM 47.8265 -115.0444 73° East  Level Estimated
Thu 11:18:51 PM 58.2500 -94.1167 192° South 290 334 28,000  Level Edmonton Center
Thu 11:19:00 PM 47.8446 -114.9547 73° East  Level Estimated
Thu 11:19:51 PM 58.1833 -94.1667 202° Southwest 280 322 28,000  Level Edmonton Center
Thu 11:20:00 PM 47.8626 -114.8648 73° East  Level Estimated
Thu 11:20:51 PM 58.1000 -94.2000 192° South 290 334 28,000  Level Edmonton Center
Thu 11:21:00 PM 47.8805 -114.7749 73° East  Level Estimated
Thu 11:21:51 PM 58.0333 -94.2500 202° Southwest 280 322 28,000  Level Edmonton Center
Thu 11:22:51 PM 57.9667 -94.2667 188° South 280 322 28,000  Level Edmonton Center
Thu 11:23:51 PM 57.8667 -94.3000 190° South 280 322 28,000  Level Edmonton Center
Thu 11:24:51 PM 57.8000 -94.3500 202° Southwest 280 322 28,000  Level Edmonton Center
Thu 11:25:43 PM 57.7500 -94.4167 215° Southwest 280 322 28,000  Level Winnipeg Center
Thu 11:26:43 PM 57.6667 -94.4667 198° South 280 322 28,000  Level Winnipeg Center
Thu 11:27:43 PM 57.5833 -94.4667 180° South 280 322 28,000  Level Winnipeg Center
Thu 11:28:43 PM 57.5167 -94.5000 195° South 290 334 28,000  Level Winnipeg Center
Thu 11:29:43 PM 57.4333 -94.5333 192° South 290 334 28,000  Level Winnipeg Center
Thu 11:30:43 PM 57.3667 -94.5667 195° South 280 322 28,000  Level Winnipeg Center
Thu 11:31:43 PM 57.2833 -94.6167 198° South 280 322 28,000  Level Winnipeg Center
Thu 11:32:43 PM 57.2000 -94.6500 192° South 280 322 28,000  Level Winnipeg Center
Thu 11:33:43 PM 57.1167 -94.6833 192° South 290 334 28,000  Level Winnipeg Center
Thu 11:34:43 PM 57.0500 -94.7167 195° South 290 334 28,000  Level Winnipeg Center
Thu 11:35:43 PM 56.9667 -94.7500 192° South 290 334 28,000  Level Winnipeg Center
Thu 11:36:43 PM 56.9000 -94.7833 195° South 280 322 28,000  Level Winnipeg Center
Thu 11:37:43 PM 56.8167 -94.8167 192° South 280 322 28,000  Level Winnipeg Center
Thu 11:38:43 PM 56.7333 -94.8500 192° South 280 322 28,000  Level Winnipeg Center
Thu 11:39:42 PM 56.6667 -94.8833 195° South 290 334 28,000  Level Winnipeg Center
Thu 11:40:42 PM 56.5833 -94.9333 198° South 290 334 28,000  Level Winnipeg Center
Thu 11:41:42 PM 56.5000 -94.9667 192° South 290 334 28,000  Level Winnipeg Center
Thu 11:42:42 PM 56.4333 -95.0000 195° South 280 322 28,000  Level Winnipeg Center
Thu 11:44:51 PM 56.2500 -95.0167 193° South 280 322 28,000  Level Edmonton Center
Thu 11:45:42 PM 56.2000 -95.1000 223° Southwest 280 322 28,000  Level Winnipeg Center
Thu 11:46:42 PM 56.1167 -95.1000 180° South 290 334 28,000  Level Winnipeg Center
Thu 11:48:51 PM 55.9500 -95.1500 194° South 280 322 28,000  Level Edmonton Center
Thu 11:49:42 PM 55.8833 -95.2000 203° Southwest 280 322 28,000  Level Winnipeg Center
Thu 11:50:42 PM 55.8000 -95.2333 193° South 280 322 28,000  Level Winnipeg Center
Thu 11:51:42 PM 55.7333 -95.2667 196° South 280 322 28,000  Level Winnipeg Center
Thu 11:52:42 PM 55.6500 -95.3000 193° South 280 322 28,000  Level Winnipeg Center
Thu 11:53:42 PM 55.5667 -95.3333 193° South 280 322 28,000  Level Winnipeg Center
Thu 11:54:42 PM 55.5000 -95.3667 196° South 280 322 28,000  Level Winnipeg Center
Thu 11:55:42 PM 55.4333 -95.4000 196° South 280 322 28,000  Level Winnipeg Center
Thu 11:56:42 PM 55.3500 -95.4333 193° South 290 334 28,000  Level Winnipeg Center
Thu 11:57:42 PM 55.2833 -95.4667 196° South 290 334 28,000  Level Winnipeg Center
Thu 11:58:42 PM 55.2000 -95.5000 193° South 290 334 28,000  Level Winnipeg Center
Thu 11:59:42 PM 55.1167 -95.5333 193° South 290 334 28,000  Level Winnipeg Center
Fri 12:00:42 AM 55.0500 -95.5667 196° South 280 322 28,000  Level Winnipeg Center
Fri 12:01:42 AM 54.9667 -95.6000 193° South 280 322 28,000  Level Winnipeg Center
Fri 12:02:42 AM 54.9000 -95.6000 180° South 290 334 28,000  Level Winnipeg Center
Fri 12:03:42 AM 54.8167 -95.6333 193° South 290 334 28,000  Level Winnipeg Center
Fri 12:04:42 AM 54.7333 -95.6667 193° South 290 334 28,000  Level Winnipeg Center
Fri 12:05:42 AM 54.6500 -95.6833 187° South 290 334 28,000  Level Winnipeg Center
Fri 12:06:42 AM 54.5833 -95.7167 196° South 290 334 28,000  Level Winnipeg Center
Fri 12:07:43 AM 54.5000 -95.7500 193° South 290 334 28,000  Level Winnipeg Center
Fri 12:08:43 AM 54.4167 -95.7833 193° South 290 334 28,000  Level Winnipeg Center
Fri 12:09:43 AM 54.3333 -95.8167 193° South 290 334 28,000  Level Winnipeg Center
Fri 12:10:43 AM 54.2667 -95.8500 196° South 290 334 28,000  Level Winnipeg Center
Fri 12:11:43 AM 54.1833 -95.8833 193° South 290 334 28,000  Level Winnipeg Center
Fri 12:12:43 AM 54.1000 -95.9000 187° South 290 334 28,000  Level Winnipeg Center
Fri 12:13:43 AM 54.0000 -95.9333 191° South 290 334 28,000  Level Winnipeg Center
Fri 12:14:43 AM 53.9333 -95.9667 196° South 290 334 28,000  Level Winnipeg Center
Fri 12:15:43 AM 53.8500 -96.0000 193° South 290 334 28,000  Level Winnipeg Center
Fri 12:16:43 AM 53.7667 -96.0333 193° South 290 334 28,000  Level Winnipeg Center
Fri 12:17:43 AM 53.7000 -96.0667 196° South 290 334 28,000  Level Winnipeg Center
Fri 12:18:43 AM 53.6167 -96.0833 187° South 290 334 28,000  Level Winnipeg Center
Fri 12:19:43 AM 53.5333 -96.1167 193° South 290 334 28,000  Level Winnipeg Center
Fri 12:20:43 AM 53.4500 -96.1500 193° South 290 334 28,000  Level Winnipeg Center
Fri 12:21:43 AM 53.3833 -96.1833 197° South 290 334 28,000  Level Winnipeg Center
Fri 12:22:43 AM 53.3000 -96.2000 187° South 290 334 28,000  Level Winnipeg Center
Fri 12:23:43 AM 53.2167 -96.2333 193° South 290 334 28,000  Level Winnipeg Center
Fri 12:24:43 AM 53.1500 -96.2667 197° South 290 334 28,000  Level Winnipeg Center
Fri 12:25:43 AM 53.0667 -96.3000 194° South 290 334 28,000  Level Winnipeg Center
Fri 12:26:43 AM 52.9833 -96.3000 180° South 290 334 28,000  Level Winnipeg Center
Fri 12:27:43 AM 52.9000 -96.3333 194° South 290 334 28,000  Level Winnipeg Center
Fri 12:28:43 AM 52.8333 -96.3833 204° Southwest 300 345 28,000  Level Winnipeg Center
Fri 12:29:43 AM 52.7500 -96.4167 194° South 290 334 28,000  Level Winnipeg Center
Fri 12:30:43 AM 52.6667 -96.4167 180° South 290 334 28,000  Level Winnipeg Center
Fri 12:31:43 AM 52.5833 -96.4333 187° South 290 334 28,000  Level Winnipeg Center
Fri 12:32:43 AM 52.5167 -96.5000 211° Southwest 290 334 28,000  Level Winnipeg Center
Fri 12:33:43 AM 52.4167 -96.5000 180° South 290 334 28,000  Level Winnipeg Center
Fri 12:34:43 AM 52.3500 -96.5333 197° South 290 334 28,000  Level Winnipeg Center
Fri 12:35:43 AM 52.2667 -96.5500 187° South 290 334 28,000  Level Winnipeg Center
Fri 12:36:43 AM 52.1833 -96.5833 194° South 290 334 28,000  Level Winnipeg Center
Fri 12:37:42 AM 52.1167 -96.6167 197° South 290 334 28,000  Level Winnipeg Center
Fri 12:38:42 AM 52.0333 -96.6333 187° South 290 334 28,000  Level Winnipeg Center
Fri 12:39:43 AM 51.9500 -96.6667 194° South 290 334 28,000  Level Winnipeg Center
Fri 12:40:43 AM 51.8667 -96.7000 194° South 290 334 28,000  Level Winnipeg Center
Fri 12:41:42 AM 51.8000 -96.7167 189° South 290 334 28,000  Level Winnipeg Center
Fri 12:42:43 AM 51.7167 -96.7500 194° South 290 334 28,000  Level Winnipeg Center
Fri 12:43:43 AM 51.6333 -96.7833 194° South 290 334 28,000  Level Winnipeg Center
Fri 12:44:43 AM 51.5500 -96.8000 187° South 290 334 28,000  Level Winnipeg Center
Fri 12:45:42 AM 51.4833 -96.8333 197° South 290 334 28,000  Level Winnipeg Center
Fri 12:46:43 AM 51.3833 -96.8500 186° South 300 345 28,000 -350 Level Winnipeg Center
Fri 12:47:42 AM 51.3167 -96.8833 197° South 300 345 27,300 -800 Descending Winnipeg Center
Fri 12:48:43 AM 51.2167 -96.9167 192° South 310 357 26,400 -900 Descending Winnipeg Center
Fri 12:49:42 AM 51.1500 -96.9333 189° South 310 357 25,500 -958 Descending Winnipeg Center
Fri 12:50:42 AM 51.0667 -96.9667 194° South 310 357 24,500 -1,250 Descending Winnipeg Center
Fri 12:51:42 AM 50.9667 -97.0000 192° South 310 357 23,000 -1,450 Descending Winnipeg Center
Fri 12:52:42 AM 50.8833 -97.0167 187° South 320 368 21,600 -1,500 Descending Winnipeg Center
Fri 12:53:42 AM 50.8000 -97.0500 194° South 320 368 20,000 -1,438 Descending Winnipeg Center
Fri 12:54:43 AM 50.7167 -97.0667 187° South 320 368 18,700 -1,250 Descending Winnipeg Center
Fri 12:55:42 AM 50.6333 -97.1000 194° South 320 368 17,500 -1,412 Descending Winnipeg Center
Fri 12:56:42 AM 50.5500 -97.1167 187° South 300 345 15,900 -1,650 Descending Winnipeg Center
Fri 12:57:42 AM 50.4667 -97.1500 194° South 300 345 14,200 -1,800 Descending Winnipeg Center
Fri 12:58:42 AM 50.3833 -97.1833 194° South 290 334 12,300 -1,750 Descending Winnipeg Center
Fri 12:59:42 AM 50.3167 -97.2000 189° South 280 322 10,700 -1,850 Descending Winnipeg Center
Fri 01:00:42 AM 50.2333 -97.2333 194° South 280 322 8,600 -1,950 Descending Winnipeg Center
Fri 01:01:42 AM 50.1667 -97.2500 189° South 260 299 6,800 -1,750 Descending Winnipeg Center
Fri 01:02:42 AM 50.1000 -97.2833 198° South 240 276 5,100 -1,500 Descending Winnipeg Center
Fri 01:03:42 AM 50.0333 -97.3000 189° South 200 230 3,800 -1,150 Descending Winnipeg Center
Fri 01:04:42 AM 50.0000 -97.3000 180° South 160 184 2,800 -793 Descending Winnipeg Center
Fri 01:05:43 AM 49.9667 -97.3000 180° South 130 150 2,200 -550 Descending Winnipeg Center
Fri 01:06:42 AM 49.9333 -97.2833 162° South 130 150 1,700 -605 Descending Winnipeg Center
Fri 01:07:42 AM 49.9000 -97.2500 147° Southeast 110 127 1,000 -450 Descending Winnipeg Center
Fri 01:08:42 AM 49.8833 -97.2333 147° Southeast 40 46 800 -200 Descending Winnipeg Center

Login

Don't have an account? Register now (free) for customized features, flight alerts, and more!